sensor_id;sensor_type;location;lat;lon;timestamp;pressure;altitude;pressure_sealevel;temperature;humidity
26719;BME280;14326;50.794;6.060;2023-05-23T00:01:51;99856.06;;;15.43;100.00
26719;BME280;14326;50.794;6.060;2023-05-23T00:04:37;99851.59;;;15.42;100.00
26719;BME280;14326;50.794;6.060;2023-05-23T00:07:23;99852.44;;;15.47;100.00
26719;BME280;14326;50.794;6.060;2023-05-23T00:09:58;99860.50;;;15.48;100.00
26719;BME280;14326;50.794;6.060;2023-05-23T00:12:41;99854.19;;;15.49;100.00
26719;BME280;14326;50.794;6.060;2023-05-23T00:15:08;99860.44;;;15.51;100.00
26719;BME280;14326;50.794;6.060;2023-05-23T00:17:45;99848.88;;;15.54;100.00
26719;BME280;14326;50.794;6.060;2023-05-23T00:20:35;99852.41;;;15.50;100.00
26719;BME280;14326;50.794;6.060;2023-05-23T00:23:19;99851.50;;;15.51;100.00
26719;BME280;14326;50.794;6.060;2023-05-23T00:25:57;99862.28;;;15.52;100.00
26719;BME280;14326;50.794;6.060;2023-05-23T00:28:47;99856.00;;;15.53;100.00
26719;BME280;14326;50.794;6.060;2023-05-23T00:31:26;99852.41;;;15.56;100.00
26719;BME280;14326;50.794;6.060;2023-05-23T00:34:01;99861.38;;;15.55;100.00
26719;BME280;14326;50.794;6.060;2023-05-23T00:36:27;99856.91;;;15.54;100.00
26719;BME280;14326;50.794;6.060;2023-05-23T00:39:24;99857.75;;;15.56;100.00
26719;BME280;14326;50.794;6.060;2023-05-23T00:41:56;99864.91;;;15.57;100.00
26719;BME280;14326;50.794;6.060;2023-05-23T00:44:24;99852.44;;;15.53;100.00
26719;BME280;14326;50.794;6.060;2023-05-23T00:46:55;99857.81;;;15.54;100.00
26719;BME280;14326;50.794;6.060;2023-05-23T00:49:36;99856.91;;;15.52;100.00
26719;BME280;14326;50.794;6.060;2023-05-23T00:52:29;99861.38;;;15.49;100.00
26719;BME280;14326;50.794;6.060;2023-05-23T00:55:13;99853.38;;;15.41;100.00
26719;BME280;14326;50.794;6.060;2023-05-23T00:57:40;99860.53;;;15.39;100.00
26719;BME280;14326;50.794;6.060;2023-05-23T01:03:26;99862.38;;;15.31;100.00
26719;BME280;14326;50.794;6.060;2023-05-23T01:06:04;99866.84;;;15.26;100.00
26719;BME280;14326;50.794;6.060;2023-05-23T01:08:35;99877.59;;;15.22;100.00
26719;BME280;14326;50.794;6.060;2023-05-23T01:11:05;99876.75;;;15.15;100.00
26719;BME280;14326;50.794;6.060;2023-05-23T01:13:39;99877.66;;;15.14;100.00
26719;BME280;14326;50.794;6.060;2023-05-23T01:16:12;99877.66;;;15.08;100.00
26719;BME280;14326;50.794;6.060;2023-05-23T01:18:46;99869.66;;;15.05;100.00
26719;BME280;14326;50.794;6.060;2023-05-23T01:21:16;99875.94;;;15.01;100.00
26719;BME280;14326;50.794;6.060;2023-05-23T01:24:15;99886.66;;;14.96;100.00
26719;BME280;14326;50.794;6.060;2023-05-23T01:27:26;99893.84;;;14.90;100.00
26719;BME280;14326;50.794;6.060;2023-05-23T01:33:17;99890.25;;;14.92;100.00
26719;BME280;14326;50.794;6.060;2023-05-23T01:35:46;99886.72;;;14.89;100.00
26719;BME280;14326;50.794;6.060;2023-05-23T01:38:42;99890.25;;;14.91;100.00
26719;BME280;14326;50.794;6.060;2023-05-23T01:41:08;99884.94;;;14.88;100.00
26719;BME280;14326;50.794;6.060;2023-05-23T01:43:35;99883.13;;;14.88;100.00
26719;BME280;14326;50.794;6.060;2023-05-23T01:52:28;99898.28;;;14.91;100.00
26719;BME280;14326;50.794;6.060;2023-05-23T01:55:38;99906.34;;;14.88;100.00
26719;BME280;14326;50.794;6.060;2023-05-23T01:58:20;99904.56;;;14.85;100.00
26719;BME280;14326;50.794;6.060;2023-05-23T02:00:47;99904.56;;;14.87;100.00
26719;BME280;14326;50.794;6.060;2023-05-23T02:03:43;99899.22;;;14.87;100.00
26719;BME280;14326;50.794;6.060;2023-05-23T02:06:34;99910.84;;;14.83;100.00
26719;BME280;14326;50.794;6.060;2023-05-23T02:09:26;99909.06;;;14.83;100.00
26719;BME280;14326;50.794;6.060;2023-05-23T02:12:12;99916.19;;;14.84;100.00
26719;BME280;14326;50.794;6.060;2023-05-23T02:15:02;99916.19;;;14.83;100.00
26719;BME280;14326;50.794;6.060;2023-05-23T02:17:51;99917.97;;;14.79;100.00
26719;BME280;14326;50.794;6.060;2023-05-23T02:20:49;99918.00;;;14.74;100.00
26719;BME280;14326;50.794;6.060;2023-05-23T02:23:22;99917.09;;;14.74;100.00
26719;BME280;14326;50.794;6.060;2023-05-23T02:29:07;99927.84;;;14.66;100.00
26719;BME280;14326;50.794;6.060;2023-05-23T02:31:42;99923.34;;;14.67;100.00
26719;BME280;14326;50.794;6.060;2023-05-23T02:37:48;99930.53;;;14.59;100.00
26719;BME280;14326;50.794;6.060;2023-05-23T02:40:34;99935.88;;;14.62;100.00
26719;BME280;14326;50.794;6.060;2023-05-23T02:49:19;99928.75;;;14.59;100.00
26719;BME280;14326;50.794;6.060;2023-05-23T02:52:11;99932.31;;;14.55;100.00
26719;BME280;14326;50.794;6.060;2023-05-23T02:57:50;99943.03;;;14.55;100.00
26719;BME280;14326;50.794;6.060;2023-05-23T03:00:17;99944.81;;;14.52;100.00
26719;BME280;14326;50.794;6.060;2023-05-23T03:02:45;99937.69;;;14.46;100.00
26719;BME280;14326;50.794;6.060;2023-05-23T03:05:12;99943.94;;;14.48;100.00
26719;BME280;14326;50.794;6.060;2023-05-23T03:07:38;99943.94;;;14.50;100.00
26719;BME280;14326;50.794;6.060;2023-05-23T03:10:06;99949.28;;;14.47;100.00
26719;BME280;14326;50.794;6.060;2023-05-23T03:12:33;99948.41;;;14.46;100.00
26719;BME280;14326;50.794;6.060;2023-05-23T03:14:59;99948.38;;;14.49;100.00
26719;BME280;14326;50.794;6.060;2023-05-23T03:17:26;99945.72;;;14.52;100.00
26719;BME280;14326;50.794;6.060;2023-05-23T03:20:10;99951.97;;;14.54;100.00
26719;BME280;14326;50.794;6.060;2023-05-23T03:22:36;99960.88;;;14.50;100.00
26719;BME280;14326;50.794;6.060;2023-05-23T03:25:04;99957.31;;;14.50;100.00
26719;BME280;14326;50.794;6.060;2023-05-23T03:27:31;99961.78;;;14.52;100.00
26719;BME280;14326;50.794;6.060;2023-05-23T03:30:02;99955.53;;;14.44;100.00
26719;BME280;14326;50.794;6.060;2023-05-23T03:32:28;99960.00;;;14.45;100.00
26719;BME280;14326;50.794;6.060;2023-05-23T03:34:59;99962.69;;;14.45;100.00
26719;BME280;14326;50.794;6.060;2023-05-23T03:37:36;99957.31;;;14.44;100.00
26719;BME280;14326;50.794;6.060;2023-05-23T03:40:04;99968.94;;;14.47;100.00
26719;BME280;14326;50.794;6.060;2023-05-23T03:42:31;99967.13;;;14.49;100.00
26719;BME280;14326;50.794;6.060;2023-05-23T03:44:57;99968.03;;;14.45;100.00
26719;BME280;14326;50.794;6.060;2023-05-23T03:47:24;99968.94;;;14.47;100.00
26719;BME280;14326;50.794;6.060;2023-05-23T03:50:06;99970.72;;;14.48;100.00
26719;BME280;14326;50.794;6.060;2023-05-23T03:52:37;99960.91;;;14.47;100.00
26719;BME280;14326;50.794;6.060;2023-05-23T03:55:04;99972.47;;;14.49;100.00
26719;BME280;14326;50.794;6.060;2023-05-23T03:57:31;99976.06;;;14.45;100.00
26719;BME280;14326;50.794;6.060;2023-05-23T03:59:57;99972.50;;;14.45;100.00
26719;BME280;14326;50.794;6.060;2023-05-23T04:02:24;99983.19;;;14.45;100.00
26719;BME280;14326;50.794;6.060;2023-05-23T04:04:51;99986.78;;;14.48;100.00
26719;BME280;14326;50.794;6.060;2023-05-23T04:07:18;99978.72;;;14.45;100.00
26719;BME280;14326;50.794;6.060;2023-05-23T04:09:46;99975.16;;;14.40;100.00
26719;BME280;14326;50.794;6.060;2023-05-23T04:12:15;99980.53;;;14.37;100.00
26719;BME280;14326;50.794;6.060;2023-05-23T04:14:42;99974.25;;;14.27;100.00
26719;BME280;14326;50.794;6.060;2023-05-23T04:17:08;99992.09;;;14.27;100.00
26719;BME280;14326;50.794;6.060;2023-05-23T04:19:36;99982.25;;;14.32;100.00
26719;BME280;14326;50.794;6.060;2023-05-23T04:22:02;99997.44;;;14.30;100.00
26719;BME280;14326;50.794;6.060;2023-05-23T04:24:34;100001.91;;;14.31;100.00
26719;BME280;14326;50.794;6.060;2023-05-23T04:27:03;100000.13;;;14.30;100.00
26719;BME280;14326;50.794;6.060;2023-05-23T04:29:30;100007.25;;;14.28;100.00
26719;BME280;14326;50.794;6.060;2023-05-23T04:31:57;100012.63;;;14.25;100.00
26719;BME280;14326;50.794;6.060;2023-05-23T04:34:24;100004.59;;;14.25;100.00
26719;BME280;14326;50.794;6.060;2023-05-23T04:36:51;100011.72;;;14.24;100.00
26719;BME280;14326;50.794;6.060;2023-05-23T04:39:18;100016.19;;;14.24;100.00
26719;BME280;14326;50.794;6.060;2023-05-23T04:41:44;100008.16;;;14.22;100.00
26719;BME280;14326;50.794;6.060;2023-05-23T04:44:12;100013.50;;;14.19;100.00
26719;BME280;14326;50.794;6.060;2023-05-23T04:46:40;100004.59;;;14.19;100.00
26719;BME280;14326;50.794;6.060;2023-05-23T04:49:07;99995.63;;;14.20;100.00
26719;BME280;14326;50.794;6.060;2023-05-23T04:51:34;99994.78;;;14.24;100.00
26719;BME280;14326;50.794;6.060;2023-05-23T04:54:00;100005.47;;;14.21;100.00
26719;BME280;14326;50.794;6.060;2023-05-23T04:56:27;99992.09;;;14.25;100.00
26719;BME280;14326;50.794;6.060;2023-05-23T04:58:54;100003.69;;;14.24;100.00
26719;BME280;14326;50.794;6.060;2023-05-23T05:01:22;100007.25;;;14.23;100.00
26719;BME280;14326;50.794;6.060;2023-05-23T05:03:49;100007.25;;;14.26;100.00
26719;BME280;14326;50.794;6.060;2023-05-23T05:06:26;100011.72;;;14.29;100.00
26719;BME280;14326;50.794;6.060;2023-05-23T05:09:00;100002.78;;;14.31;100.00
26719;BME280;14326;50.794;6.060;2023-05-23T05:11:27;100007.28;;;14.31;100.00
26719;BME280;14326;50.794;6.060;2023-05-23T05:13:54;100007.28;;;14.31;100.00
26719;BME280;14326;50.794;6.060;2023-05-23T05:16:20;100014.41;;;14.30;100.00
26719;BME280;14326;50.794;6.060;2023-05-23T05:18:48;100015.28;;;14.29;100.00
26719;BME280;14326;50.794;6.060;2023-05-23T05:21:15;100017.97;;;14.34;100.00
26719;BME280;14326;50.794;6.060;2023-05-23T05:23:45;100017.97;;;14.34;100.00
26719;BME280;14326;50.794;6.060;2023-05-23T05:26:11;100020.63;;;14.32;100.00
26719;BME280;14326;50.794;6.060;2023-05-23T05:28:46;100011.75;;;14.38;100.00
26719;BME280;14326;50.794;6.060;2023-05-23T05:31:16;100017.13;;;14.43;100.00
26719;BME280;14326;50.794;6.060;2023-05-23T05:33:43;100019.78;;;14.41;100.00
26719;BME280;14326;50.794;6.060;2023-05-23T05:36:11;100018.00;;;14.45;100.00
26719;BME280;14326;50.794;6.060;2023-05-23T05:38:42;100024.25;;;14.45;100.00
26719;BME280;14326;50.794;6.060;2023-05-23T05:41:22;100018.00;;;14.45;100.00
26719;BME280;14326;50.794;6.060;2023-05-23T05:44:21;100024.25;;;14.41;100.00
26719;BME280;14326;50.794;6.060;2023-05-23T05:47:19;100019.78;;;14.41;100.00
26719;BME280;14326;50.794;6.060;2023-05-23T05:49:50;100023.34;;;14.40;100.00
26719;BME280;14326;50.794;6.060;2023-05-23T05:52:21;100034.06;;;14.40;100.00
26719;BME280;14326;50.794;6.060;2023-05-23T05:55:24;100027.78;;;14.38;100.00
26719;BME280;14326;50.794;6.060;2023-05-23T05:57:56;100034.97;;;14.42;100.00
26719;BME280;14326;50.794;6.060;2023-05-23T06:00:23;100036.72;;;14.40;100.00
26719;BME280;14326;50.794;6.060;2023-05-23T06:02:50;100040.31;;;14.41;100.00
26719;BME280;14326;50.794;6.060;2023-05-23T06:05:19;100038.53;;;14.41;100.00
26719;BME280;14326;50.794;6.060;2023-05-23T06:07:53;100036.72;;;14.45;100.00
26719;BME280;14326;50.794;6.060;2023-05-23T06:10:30;100033.16;;;14.47;100.00
26719;BME280;14326;50.794;6.060;2023-05-23T06:13:03;100041.19;;;14.46;100.00
26719;BME280;14326;50.794;6.060;2023-05-23T06:15:29;100037.63;;;14.42;100.00
26719;BME280;14326;50.794;6.060;2023-05-23T06:18:01;100044.78;;;14.37;100.00
26719;BME280;14326;50.794;6.060;2023-05-23T06:20:32;100041.16;;;14.35;100.00
26719;BME280;14326;50.794;6.060;2023-05-23T06:23:00;100043.84;;;14.38;100.00
26719;BME280;14326;50.794;6.060;2023-05-23T06:25:29;100042.94;;;14.36;100.00
26719;BME280;14326;50.794;6.060;2023-05-23T06:27:56;100048.28;;;14.33;100.00
26719;BME280;14326;50.794;6.060;2023-05-23T06:30:22;100055.44;;;14.35;100.00
26719;BME280;14326;50.794;6.060;2023-05-23T06:32:49;100052.75;;;14.35;100.00
26719;BME280;14326;50.794;6.060;2023-05-23T06:35:16;100052.75;;;14.31;100.00
26719;BME280;14326;50.794;6.060;2023-05-23T06:37:42;100051.84;;;14.32;100.00
26719;BME280;14326;50.794;6.060;2023-05-23T06:40:11;100053.63;;;14.33;100.00
26719;BME280;14326;50.794;6.060;2023-05-23T06:42:38;100059.00;;;14.36;100.00
26719;BME280;14326;50.794;6.060;2023-05-23T06:45:05;100055.47;;;14.37;100.00
26719;BME280;14326;50.794;6.060;2023-05-23T06:47:32;100054.56;;;14.40;100.00
26719;BME280;14326;50.794;6.060;2023-05-23T06:49:59;100067.09;;;14.42;100.00
26719;BME280;14326;50.794;6.060;2023-05-23T06:52:25;100069.75;;;14.45;100.00
26719;BME280;14326;50.794;6.060;2023-05-23T06:54:54;100066.16;;;14.43;100.00
26719;BME280;14326;50.794;6.060;2023-05-23T06:57:21;100076.88;;;14.49;100.00
26719;BME280;14326;50.794;6.060;2023-05-23T06:59:48;100077.78;;;14.48;100.00
26719;BME280;14326;50.794;6.060;2023-05-23T07:02:15;100081.34;;;14.43;100.00
26719;BME280;14326;50.794;6.060;2023-05-23T07:04:43;100073.31;;;14.43;100.00
26719;BME280;14326;50.794;6.060;2023-05-23T07:07:10;100078.66;;;14.44;100.00
26719;BME280;14326;50.794;6.060;2023-05-23T07:09:43;100079.53;;;14.43;100.00
26719;BME280;14326;50.794;6.060;2023-05-23T07:12:09;100076.00;;;14.43;100.00
26719;BME280;14326;50.794;6.060;2023-05-23T07:14:37;100071.53;;;14.40;100.00
26719;BME280;14326;50.794;6.060;2023-05-23T07:17:04;100084.00;;;14.38;100.00
26719;BME280;14326;50.794;6.060;2023-05-23T07:19:31;100080.41;;;14.33;100.00
26719;BME280;14326;50.794;6.060;2023-05-23T07:21:58;100085.75;;;14.33;100.00
26719;BME280;14326;50.794;6.060;2023-05-23T07:24:24;100095.63;;;14.40;100.00
26719;BME280;14326;50.794;6.060;2023-05-23T07:26:51;100101.88;;;14.42;100.00
26719;BME280;14326;50.794;6.060;2023-05-23T07:29:18;100097.41;;;14.41;100.00
26719;BME280;14326;50.794;6.060;2023-05-23T07:31:46;100094.72;;;14.38;100.00
26719;BME280;14326;50.794;6.060;2023-05-23T07:34:12;100101.88;;;14.42;100.00
26719;BME280;14326;50.794;6.060;2023-05-23T07:36:39;100092.03;;;14.38;100.00
26719;BME280;14326;50.794;6.060;2023-05-23T07:39:07;100092.94;;;14.37;100.00
26719;BME280;14326;50.794;6.060;2023-05-23T07:41:33;100094.72;;;14.38;100.00
26719;BME280;14326;50.794;6.060;2023-05-23T07:44:00;100101.84;;;14.39;100.00
26719;BME280;14326;50.794;6.060;2023-05-23T07:46:28;100098.31;;;14.42;100.00
26719;BME280;14326;50.794;6.060;2023-05-23T07:48:59;100096.50;;;14.45;100.00
26719;BME280;14326;50.794;6.060;2023-05-23T07:51:26;100100.97;;;14.43;100.00
26719;BME280;14326;50.794;6.060;2023-05-23T07:53:52;100106.31;;;14.40;100.00
26719;BME280;14326;50.794;6.060;2023-05-23T07:56:19;100107.22;;;14.47;100.00
26719;BME280;14326;50.794;6.060;2023-05-23T07:58:46;100108.13;;;14.46;100.00
26719;BME280;14326;50.794;6.060;2023-05-23T08:01:13;100105.44;;;14.44;100.00
26719;BME280;14326;50.794;6.060;2023-05-23T08:03:39;100098.28;;;14.40;100.00
26719;BME280;14326;50.794;6.060;2023-05-23T08:06:07;100105.44;;;14.43;100.00
26719;BME280;14326;50.794;6.060;2023-05-23T08:08:34;100100.97;;;14.49;100.00
26719;BME280;14326;50.794;6.060;2023-05-23T08:11:02;100099.22;;;14.48;100.00
26719;BME280;14326;50.794;6.060;2023-05-23T08:13:29;100113.47;;;14.52;100.00
26719;BME280;14326;50.794;6.060;2023-05-23T08:15:55;100113.47;;;14.53;100.00
26719;BME280;14326;50.794;6.060;2023-05-23T08:18:22;100116.16;;;14.52;100.00
26719;BME280;14326;50.794;6.060;2023-05-23T08:20:49;100121.50;;;14.46;100.00
26719;BME280;14326;50.794;6.060;2023-05-23T08:23:17;100127.72;;;14.45;100.00
26719;BME280;14326;50.794;6.060;2023-05-23T08:25:44;100121.50;;;14.41;100.00
26719;BME280;14326;50.794;6.060;2023-05-23T08:28:10;100125.94;;;14.38;100.00
26719;BME280;14326;50.794;6.060;2023-05-23T08:30:37;100126.75;;;14.26;100.00
26719;BME280;14326;50.794;6.060;2023-05-23T08:33:04;100129.44;;;14.21;100.00
26719;BME280;14326;50.794;6.060;2023-05-23T08:35:31;100133.91;;;14.19;100.00
26719;BME280;14326;50.794;6.060;2023-05-23T08:37:59;100132.09;;;14.12;100.00
26719;BME280;14326;50.794;6.060;2023-05-23T08:40:29;100132.06;;;14.05;100.00
26719;BME280;14326;50.794;6.060;2023-05-23T08:42:56;100141.84;;;14.00;100.00
26719;BME280;14326;50.794;6.060;2023-05-23T08:45:23;100140.97;;;14.01;100.00
26719;BME280;14326;50.794;6.060;2023-05-23T08:47:51;100142.75;;;14.05;100.00
26719;BME280;14326;50.794;6.060;2023-05-23T08:50:17;100146.34;;;14.07;100.00
26719;BME280;14326;50.794;6.060;2023-05-23T08:52:49;100149.91;;;14.06;100.00
26719;BME280;14326;50.794;6.060;2023-05-23T08:55:19;100153.47;;;14.05;100.00
26719;BME280;14326;50.794;6.060;2023-05-23T08:57:47;100157.91;;;14.04;100.00
26719;BME280;14326;50.794;6.060;2023-05-23T09:00:14;100154.31;;;13.94;100.00
26719;BME280;14326;50.794;6.060;2023-05-23T09:02:42;100165.84;;;13.84;100.00
26719;BME280;14326;50.794;6.060;2023-05-23T09:05:09;100169.41;;;13.80;100.00
26719;BME280;14326;50.794;6.060;2023-05-23T09:07:36;100164.94;;;13.72;100.00
26719;BME280;14326;50.794;6.060;2023-05-23T09:10:05;100168.44;;;13.68;100.00
26719;BME280;14326;50.794;6.060;2023-05-23T09:12:32;100170.22;;;13.66;100.00
26719;BME280;14326;50.794;6.060;2023-05-23T09:15:03;100170.22;;;13.69;100.00
26719;BME280;14326;50.794;6.060;2023-05-23T09:17:30;100164.88;;;13.69;100.00
26719;BME280;14326;50.794;6.060;2023-05-23T09:19:57;100171.19;;;13.80;100.00
26719;BME280;14326;50.794;6.060;2023-05-23T09:22:25;100173.03;;;13.91;100.00
26719;BME280;14326;50.794;6.060;2023-05-23T09:24:53;100176.66;;;14.06;100.00
26719;BME280;14326;50.794;6.060;2023-05-23T09:27:20;100168.69;;;14.27;100.00
26719;BME280;14326;50.794;6.060;2023-05-23T09:29:47;100169.69;;;14.50;100.00
26719;BME280;14326;50.794;6.060;2023-05-23T09:32:17;100168.81;;;14.57;100.00
26719;BME280;14326;50.794;6.060;2023-05-23T09:34:54;100173.28;;;14.64;100.00
26719;BME280;14326;50.794;6.060;2023-05-23T09:37:28;100181.28;;;14.52;100.00
26719;BME280;14326;50.794;6.060;2023-05-23T09:39:55;100180.44;;;14.65;100.00
26719;BME280;14326;50.794;6.060;2023-05-23T09:42:22;100183.13;;;14.97;100.00
26719;BME280;14326;50.794;6.060;2023-05-23T09:44:49;100184.94;;;15.23;98.22
26719;BME280;14326;50.794;6.060;2023-05-23T09:47:17;100188.50;;;15.43;98.21
26719;BME280;14326;50.794;6.060;2023-05-23T09:50:01;100182.22;;;15.39;95.00
26719;BME280;14326;50.794;6.060;2023-05-23T09:52:34;100185.81;;;15.14;94.28
26719;BME280;14326;50.794;6.060;2023-05-23T09:55:01;100188.50;;;14.99;95.69
26719;BME280;14326;50.794;6.060;2023-05-23T09:57:51;100200.09;;;14.81;96.11
26719;BME280;14326;50.794;6.060;2023-05-23T10:00:19;100193.84;;;14.78;95.51
26719;BME280;14326;50.794;6.060;2023-05-23T10:03:00;100203.63;;;14.62;94.38
26719;BME280;14326;50.794;6.060;2023-05-23T10:05:37;100208.97;;;14.54;94.71
26719;BME280;14326;50.794;6.060;2023-05-23T10:08:09;100196.50;;;14.68;95.37
26719;BME280;14326;50.794;6.060;2023-05-23T10:11:15;100205.47;;;14.89;92.06
26719;BME280;14326;50.794;6.060;2023-05-23T10:13:55;100206.38;;;14.89;90.49
26719;BME280;14326;50.794;6.060;2023-05-23T10:16:27;100206.34;;;14.92;89.85
26719;BME280;14326;50.794;6.060;2023-05-23T10:19:02;100212.59;;;15.08;88.55
26719;BME280;14326;50.794;6.060;2023-05-23T10:21:34;100204.59;;;15.12;87.04
26719;BME280;14326;50.794;6.060;2023-05-23T10:24:09;100207.25;;;15.32;87.30
26719;BME280;14326;50.794;6.060;2023-05-23T10:26:44;100217.97;;;15.41;85.41
26719;BME280;14326;50.794;6.060;2023-05-23T10:29:14;100214.41;;;15.48;85.44
26719;BME280;14326;50.794;6.060;2023-05-23T10:31:41;100209.06;;;15.61;84.53
26719;BME280;14326;50.794;6.060;2023-05-23T10:34:16;100206.38;;;15.59;84.81
26719;BME280;14326;50.794;6.060;2023-05-23T10:36:56;100209.91;;;15.67;83.28
26719;BME280;14326;50.794;6.060;2023-05-23T10:39:33;100214.38;;;15.74;81.53
26719;BME280;14326;50.794;6.060;2023-05-23T10:42:06;100208.09;;;15.83;79.66
26719;BME280;14326;50.794;6.060;2023-05-23T10:44:35;100207.19;;;15.90;78.51
26719;BME280;14326;50.794;6.060;2023-05-23T10:47:02;100205.44;;;15.83;77.53
26719;BME280;14326;50.794;6.060;2023-05-23T10:49:42;100208.09;;;15.87;77.58
26719;BME280;14326;50.794;6.060;2023-05-23T10:52:10;100209.84;;;15.97;77.14
26719;BME280;14326;50.794;6.060;2023-05-23T10:54:41;100200.84;;;16.12;75.09
26719;BME280;14326;50.794;6.060;2023-05-23T10:57:09;100198.13;;;16.24;73.00
26719;BME280;14326;50.794;6.060;2023-05-23T10:59:38;100198.00;;;16.49;72.96
26719;BME280;14326;50.794;6.060;2023-05-23T11:02:16;100195.28;;;16.59;73.53
26719;BME280;14326;50.794;6.060;2023-05-23T11:05:19;100200.63;;;16.58;72.61
26719;BME280;14326;50.794;6.060;2023-05-23T11:08:05;100209.63;;;16.46;73.47
26719;BME280;14326;50.794;6.060;2023-05-23T11:10:32;100207.84;;;16.47;74.35
26719;BME280;14326;50.794;6.060;2023-05-23T11:13:23;100214.19;;;16.27;74.73
26719;BME280;14326;50.794;6.060;2023-05-23T11:15:53;100214.28;;;16.12;76.73
26719;BME280;14326;50.794;6.060;2023-05-23T11:18:22;100214.28;;;16.14;77.80
26719;BME280;14326;50.794;6.060;2023-05-23T11:20:52;100213.38;;;16.13;75.99
26719;BME280;14326;50.794;6.060;2023-05-23T11:23:38;100216.09;;;16.06;74.93
26719;BME280;14326;50.794;6.060;2023-05-23T11:26:29;100216.03;;;16.19;75.04
26719;BME280;14326;50.794;6.060;2023-05-23T11:28:56;100218.66;;;16.28;74.91
26719;BME280;14326;50.794;6.060;2023-05-23T11:31:23;100218.66;;;16.34;75.91
26719;BME280;14326;50.794;6.060;2023-05-23T11:33:49;100220.41;;;16.43;74.66
26719;BME280;14326;50.794;6.060;2023-05-23T11:36:19;100215.00;;;16.49;73.62
26719;BME280;14326;50.794;6.060;2023-05-23T11:38:46;100230.28;;;16.36;74.53
26719;BME280;14326;50.794;6.060;2023-05-23T11:41:13;100219.59;;;16.24;73.53
26719;BME280;14326;50.794;6.060;2023-05-23T11:43:48;100222.28;;;16.24;74.32
26719;BME280;14326;50.794;6.060;2023-05-23T11:46:26;100217.75;;;16.37;74.55
26719;BME280;14326;50.794;6.060;2023-05-23T11:48:53;100211.38;;;16.56;74.68
26719;BME280;14326;50.794;6.060;2023-05-23T11:51:21;100221.22;;;16.63;73.70
26719;BME280;14326;50.794;6.060;2023-05-23T11:53:48;100218.53;;;16.66;72.89
26719;BME280;14326;50.794;6.060;2023-05-23T11:56:14;100223.91;;;16.59;73.41
26719;BME280;14326;50.794;6.060;2023-05-23T11:58:42;100221.25;;;16.51;73.68
26719;BME280;14326;50.794;6.060;2023-05-23T12:01:11;100235.59;;;16.49;73.42
26719;BME280;14326;50.794;6.060;2023-05-23T12:03:48;100235.63;;;16.43;74.23
26719;BME280;14326;50.794;6.060;2023-05-23T12:06:15;100225.81;;;16.37;74.46
26719;BME280;14326;50.794;6.060;2023-05-23T12:08:43;100239.19;;;16.38;75.00
26719;BME280;14326;50.794;6.060;2023-05-23T12:11:10;100234.72;;;16.42;75.79
26719;BME280;14326;50.794;6.060;2023-05-23T12:13:39;100223.94;;;16.53;74.62
26719;BME280;14326;50.794;6.060;2023-05-23T12:16:07;100228.38;;;16.55;72.15
26719;BME280;14326;50.794;6.060;2023-05-23T12:18:36;100230.22;;;16.44;74.38
26719;BME280;14326;50.794;6.060;2023-05-23T12:21:04;100225.78;;;16.40;73.48
26719;BME280;14326;50.794;6.060;2023-05-23T12:23:33;100227.63;;;16.26;73.84
26719;BME280;14326;50.794;6.060;2023-05-23T12:26:03;100231.22;;;16.25;73.80
26719;BME280;14326;50.794;6.060;2023-05-23T12:28:34;100233.94;;;16.14;74.61
26719;BME280;14326;50.794;6.060;2023-05-23T12:31:08;100233.94;;;16.17;75.12
26719;BME280;14326;50.794;6.060;2023-05-23T12:33:37;100240.16;;;16.28;72.38
26719;BME280;14326;50.794;6.060;2023-05-23T12:36:04;100225.72;;;16.51;72.49
26719;BME280;14326;50.794;6.060;2023-05-23T12:38:31;100221.09;;;16.80;72.34
26719;BME280;14326;50.794;6.060;2023-05-23T12:41:10;100211.84;;;17.20;70.79
26719;BME280;14326;50.794;6.060;2023-05-23T12:43:38;100208.03;;;17.47;68.76
26719;BME280;14326;50.794;6.060;2023-05-23T12:46:07;100210.53;;;17.69;67.10
26719;BME280;14326;50.794;6.060;2023-05-23T12:48:34;100208.03;;;17.49;67.23
26719;BME280;14326;50.794;6.060;2023-05-23T12:51:02;100219.84;;;17.30;67.09
26719;BME280;14326;50.794;6.060;2023-05-23T12:53:28;100214.53;;;17.20;66.40
26719;BME280;14326;50.794;6.060;2023-05-23T12:55:55;100220.75;;;17.29;66.76
26719;BME280;14326;50.794;6.060;2023-05-23T12:58:29;100208.09;;;17.40;65.99
26719;BME280;14326;50.794;6.060;2023-05-23T13:00:56;100209.78;;;17.50;64.25
26719;BME280;14326;50.794;6.060;2023-05-23T13:03:23;100217.00;;;17.46;64.62
26719;BME280;14326;50.794;6.060;2023-05-23T13:05:50;100210.78;;;17.38;63.00
26719;BME280;14326;50.794;6.060;2023-05-23T13:08:17;100214.53;;;17.24;65.07
26719;BME280;14326;50.794;6.060;2023-05-23T13:10:44;100219.06;;;17.18;62.72
26719;BME280;14326;50.794;6.060;2023-05-23T13:13:11;100220.03;;;17.04;62.43
26719;BME280;14326;50.794;6.060;2023-05-23T13:15:39;100218.16;;;17.19;62.10
26719;BME280;14326;50.794;6.060;2023-05-23T13:18:05;100220.59;;;17.47;58.99
26719;BME280;14326;50.794;6.060;2023-05-23T13:20:32;100215.72;;;17.90;60.50
26719;BME280;14326;50.794;6.060;2023-05-23T13:22:59;100223.41;;;18.22;54.63
26719;BME280;14326;50.794;6.060;2023-05-23T13:25:26;100219.03;;;18.12;54.98
26719;BME280;14326;50.794;6.060;2023-05-23T13:27:53;100224.56;;;17.99;56.45
26719;BME280;14326;50.794;6.060;2023-05-23T13:30:21;100230.91;;;17.94;55.80
26719;BME280;14326;50.794;6.060;2023-05-23T13:32:49;100231.03;;;17.83;56.69
26719;BME280;14326;50.794;6.060;2023-05-23T13:35:16;100234.81;;;17.64;56.90
26719;BME280;14326;50.794;6.060;2023-05-23T13:37:43;100235.69;;;17.66;56.81